sensor_id;sensor_type;location;lat;lon;timestamp;P1;durP1;ratioP1;P2;durP2;ratioP2
21527;SDS011;10925;49.102;-0.370;2022-12-07T00:01:18;103.82;;;32.60;;
21527;SDS011;10925;49.102;-0.370;2022-12-07T00:03:46;101.47;;;34.67;;
21527;SDS011;10925;49.102;-0.370;2022-12-07T00:06:13;100.43;;;34.67;;
21527;SDS011;10925;49.102;-0.370;2022-12-07T00:08:40;102.85;;;34.42;;
21527;SDS011;10925;49.102;-0.370;2022-12-07T00:11:07;102.97;;;30.85;;
21527;SDS011;10925;49.102;-0.370;2022-12-07T00:13:34;106.10;;;31.27;;
21527;SDS011;10925;49.102;-0.370;2022-12-07T00:16:02;124.35;;;32.65;;
21527;SDS011;10925;49.102;-0.370;2022-12-07T00:18:29;129.57;;;38.65;;
21527;SDS011;10925;49.102;-0.370;2022-12-07T00:21:03;108.85;;;34.95;;
21527;SDS011;10925;49.102;-0.370;2022-12-07T00:23:29;136.07;;;45.88;;
21527;SDS011;10925;49.102;-0.370;2022-12-07T00:26:02;133.85;;;41.88;;
21527;SDS011;10925;49.102;-0.370;2022-12-07T00:28:29;130.70;;;35.05;;
21527;SDS011;10925;49.102;-0.370;2022-12-07T00:30:59;124.80;;;34.88;;
21527;SDS011;10925;49.102;-0.370;2022-12-07T00:33:26;126.88;;;32.83;;
21527;SDS011;10925;49.102;-0.370;2022-12-07T00:35:55;127.72;;;31.55;;
21527;SDS011;10925;49.102;-0.370;2022-12-07T00:38:21;111.82;;;30.83;;
21527;SDS011;10925;49.102;-0.370;2022-12-07T00:40:57;121.20;;;30.00;;
21527;SDS011;10925;49.102;-0.370;2022-12-07T00:43:23;79.70;;;25.38;;
21527;SDS011;10925;49.102;-0.370;2022-12-07T00:45:50;108.40;;;27.75;;
21527;SDS011;10925;49.102;-0.370;2022-12-07T00:48:16;101.90;;;27.55;;
21527;SDS011;10925;49.102;-0.370;2022-12-07T00:50:42;106.22;;;27.27;;
21527;SDS011;10925;49.102;-0.370;2022-12-07T00:53:07;127.03;;;28.00;;
21527;SDS011;10925;49.102;-0.370;2022-12-07T00:55:35;108.55;;;27.08;;
21527;SDS011;10925;49.102;-0.370;2022-12-07T00:58:02;99.82;;;27.05;;
21527;SDS011;10925;49.102;-0.370;2022-12-07T01:00:29;98.90;;;26.45;;
21527;SDS011;10925;49.102;-0.370;2022-12-07T01:02:56;109.05;;;27.98;;
21527;SDS011;10925;49.102;-0.370;2022-12-07T01:05:23;111.30;;;28.00;;
21527;SDS011;10925;49.102;-0.370;2022-12-07T01:07:49;108.00;;;26.85;;
21527;SDS011;10925;49.102;-0.370;2022-12-07T01:10:16;122.53;;;27.65;;
21527;SDS011;10925;49.102;-0.370;2022-12-07T01:12:43;125.05;;;25.48;;
21527;SDS011;10925;49.102;-0.370;2022-12-07T01:15:10;94.30;;;24.08;;
21527;SDS011;10925;49.102;-0.370;2022-12-07T01:17:36;108.72;;;25.40;;
21527;SDS011;10925;49.102;-0.370;2022-12-07T01:20:03;123.35;;;28.27;;
21527;SDS011;10925;49.102;-0.370;2022-12-07T01:22:30;126.45;;;29.65;;
21527;SDS011;10925;49.102;-0.370;2022-12-07T01:24:57;136.55;;;30.52;;
21527;SDS011;10925;49.102;-0.370;2022-12-07T01:27:24;122.03;;;30.75;;
21527;SDS011;10925;49.102;-0.370;2022-12-07T01:29:50;125.43;;;29.48;;
21527;SDS011;10925;49.102;-0.370;2022-12-07T01:32:17;139.15;;;28.80;;
21527;SDS011;10925;49.102;-0.370;2022-12-07T01:34:43;148.30;;;30.25;;
21527;SDS011;10925;49.102;-0.370;2022-12-07T01:37:09;135.57;;;31.08;;
21527;SDS011;10925;49.102;-0.370;2022-12-07T01:39:36;133.77;;;28.60;;
21527;SDS011;10925;49.102;-0.370;2022-12-07T01:42:02;116.43;;;28.10;;
21527;SDS011;10925;49.102;-0.370;2022-12-07T01:44:29;111.32;;;28.38;;
21527;SDS011;10925;49.102;-0.370;2022-12-07T01:46:58;118.38;;;29.75;;
21527;SDS011;10925;49.102;-0.370;2022-12-07T01:51:57;91.80;;;27.00;;
21527;SDS011;10925;49.102;-0.370;2022-12-07T01:54:24;105.35;;;27.70;;
21527;SDS011;10925;49.102;-0.370;2022-12-07T01:56:53;105.20;;;28.67;;
21527;SDS011;10925;49.102;-0.370;2022-12-07T01:59:21;112.95;;;28.35;;
21527;SDS011;10925;49.102;-0.370;2022-12-07T02:01:48;111.93;;;29.05;;
21527;SDS011;10925;49.102;-0.370;2022-12-07T02:04:15;136.00;;;30.38;;
21527;SDS011;10925;49.102;-0.370;2022-12-07T02:06:42;111.70;;;29.45;;
21527;SDS011;10925;49.102;-0.370;2022-12-07T02:09:10;93.18;;;26.98;;
21527;SDS011;10925;49.102;-0.370;2022-12-07T02:11:36;89.05;;;26.50;;
21527;SDS011;10925;49.102;-0.370;2022-12-07T02:14:03;90.47;;;26.77;;
21527;SDS011;10925;49.102;-0.370;2022-12-07T02:24:58;104.90;;;30.52;;
21527;SDS011;10925;49.102;-0.370;2022-12-07T02:28:15;114.72;;;33.30;;
21527;SDS011;10925;49.102;-0.370;2022-12-07T02:30:21;104.32;;;28.98;;
21527;SDS011;10925;49.102;-0.370;2022-12-07T02:33:49;91.47;;;26.70;;
21527;SDS011;10925;49.102;-0.370;2022-12-07T02:36:02;82.88;;;26.10;;
21527;SDS011;10925;49.102;-0.370;2022-12-07T02:41:06;94.60;;;29.20;;
21527;SDS011;10925;49.102;-0.370;2022-12-07T02:43:35;86.10;;;25.98;;
21527;SDS011;10925;49.102;-0.370;2022-12-07T02:46:06;81.15;;;25.40;;
21527;SDS011;10925;49.102;-0.370;2022-12-07T02:48:34;83.18;;;24.60;;
21527;SDS011;10925;49.102;-0.370;2022-12-07T02:51:02;88.85;;;28.10;;
21527;SDS011;10925;49.102;-0.370;2022-12-07T02:53:37;80.95;;;24.55;;
21527;SDS011;10925;49.102;-0.370;2022-12-07T02:56:50;87.57;;;26.90;;
21527;SDS011;10925;49.102;-0.370;2022-12-07T03:04:09;72.20;;;24.48;;
21527;SDS011;10925;49.102;-0.370;2022-12-07T03:06:42;81.18;;;25.02;;
21527;SDS011;10925;49.102;-0.370;2022-12-07T03:09:13;85.05;;;25.98;;
21527;SDS011;10925;49.102;-0.370;2022-12-07T03:11:51;88.43;;;25.85;;
21527;SDS011;10925;49.102;-0.370;2022-12-07T03:16:53;85.25;;;26.02;;
21527;SDS011;10925;49.102;-0.370;2022-12-07T03:19:21;78.72;;;25.42;;
21527;SDS011;10925;49.102;-0.370;2022-12-07T03:21:53;83.45;;;25.67;;
21527;SDS011;10925;49.102;-0.370;2022-12-07T03:24:24;81.10;;;25.73;;
21527;SDS011;10925;49.102;-0.370;2022-12-07T03:26:52;79.70;;;24.67;;
21527;SDS011;10925;49.102;-0.370;2022-12-07T03:29:25;68.45;;;24.08;;
21527;SDS011;10925;49.102;-0.370;2022-12-07T03:31:58;71.43;;;24.55;;
21527;SDS011;10925;49.102;-0.370;2022-12-07T03:34:31;76.90;;;25.17;;
21527;SDS011;10925;49.102;-0.370;2022-12-07T03:37:09;86.10;;;26.10;;
21527;SDS011;10925;49.102;-0.370;2022-12-07T03:39:39;87.63;;;27.27;;
21527;SDS011;10925;49.102;-0.370;2022-12-07T03:42:07;88.00;;;29.65;;
21527;SDS011;10925;49.102;-0.370;2022-12-07T03:44:34;102.00;;;31.15;;
21527;SDS011;10925;49.102;-0.370;2022-12-07T03:54:28;91.18;;;27.75;;
21527;SDS011;10925;49.102;-0.370;2022-12-07T03:56:57;84.53;;;27.48;;
21527;SDS011;10925;49.102;-0.370;2022-12-07T03:59:24;80.40;;;26.00;;
21527;SDS011;10925;49.102;-0.370;2022-12-07T04:01:53;86.22;;;28.30;;
21527;SDS011;10925;49.102;-0.370;2022-12-07T04:04:21;90.03;;;26.65;;
21527;SDS011;10925;49.102;-0.370;2022-12-07T04:06:48;77.97;;;25.63;;
21527;SDS011;10925;49.102;-0.370;2022-12-07T04:09:14;81.38;;;26.08;;
21527;SDS011;10925;49.102;-0.370;2022-12-07T04:11:41;75.25;;;25.83;;
21527;SDS011;10925;49.102;-0.370;2022-12-07T04:14:07;79.30;;;26.25;;
21527;SDS011;10925;49.102;-0.370;2022-12-07T04:16:47;77.55;;;25.08;;
21527;SDS011;10925;49.102;-0.370;2022-12-07T04:19:14;82.72;;;26.63;;
21527;SDS011;10925;49.102;-0.370;2022-12-07T04:21:41;80.18;;;25.95;;
21527;SDS011;10925;49.102;-0.370;2022-12-07T04:24:08;82.50;;;25.13;;
21527;SDS011;10925;49.102;-0.370;2022-12-07T04:26:35;71.65;;;23.80;;
21527;SDS011;10925;49.102;-0.370;2022-12-07T04:29:02;78.28;;;24.10;;
21527;SDS011;10925;49.102;-0.370;2022-12-07T04:31:33;75.97;;;24.27;;
21527;SDS011;10925;49.102;-0.370;2022-12-07T04:34:00;74.65;;;24.33;;
21527;SDS011;10925;49.102;-0.370;2022-12-07T04:36:26;76.50;;;24.17;;
21527;SDS011;10925;49.102;-0.370;2022-12-07T04:38:55;67.47;;;23.00;;
21527;SDS011;10925;49.102;-0.370;2022-12-07T04:41:22;72.88;;;23.95;;
21527;SDS011;10925;49.102;-0.370;2022-12-07T04:43:57;73.30;;;24.42;;
21527;SDS011;10925;49.102;-0.370;2022-12-07T04:46:24;72.38;;;23.92;;
21527;SDS011;10925;49.102;-0.370;2022-12-07T04:48:51;75.50;;;23.80;;
21527;SDS011;10925;49.102;-0.370;2022-12-07T04:51:22;74.75;;;22.85;;
21527;SDS011;10925;49.102;-0.370;2022-12-07T04:53:49;64.68;;;22.35;;
21527;SDS011;10925;49.102;-0.370;2022-12-07T04:56:16;66.93;;;22.85;;
21527;SDS011;10925;49.102;-0.370;2022-12-07T04:58:54;68.22;;;22.17;;
21527;SDS011;10925;49.102;-0.370;2022-12-07T05:01:20;63.03;;;20.85;;
21527;SDS011;10925;49.102;-0.370;2022-12-07T05:03:47;55.15;;;20.10;;
21527;SDS011;10925;49.102;-0.370;2022-12-07T05:06:14;50.00;;;18.13;;
21527;SDS011;10925;49.102;-0.370;2022-12-07T05:08:40;51.38;;;18.20;;
21527;SDS011;10925;49.102;-0.370;2022-12-07T05:11:06;54.75;;;18.80;;
21527;SDS011;10925;49.102;-0.370;2022-12-07T05:13:34;55.85;;;19.45;;
21527;SDS011;10925;49.102;-0.370;2022-12-07T05:16:00;49.25;;;18.95;;
21527;SDS011;10925;49.102;-0.370;2022-12-07T05:18:27;53.35;;;18.73;;
21527;SDS011;10925;49.102;-0.370;2022-12-07T05:25:46;53.00;;;18.80;;
21527;SDS011;10925;49.102;-0.370;2022-12-07T05:28:13;55.45;;;19.30;;
21527;SDS011;10925;49.102;-0.370;2022-12-07T05:30:40;55.10;;;19.30;;
21527;SDS011;10925;49.102;-0.370;2022-12-07T05:33:07;59.10;;;19.63;;
21527;SDS011;10925;49.102;-0.370;2022-12-07T05:35:33;58.97;;;20.85;;
21527;SDS011;10925;49.102;-0.370;2022-12-07T05:38:00;71.43;;;22.08;;
21527;SDS011;10925;49.102;-0.370;2022-12-07T05:40:27;60.83;;;21.70;;
21527;SDS011;10925;49.102;-0.370;2022-12-07T05:42:54;57.88;;;21.15;;
21527;SDS011;10925;49.102;-0.370;2022-12-07T05:45:31;58.28;;;19.48;;
21527;SDS011;10925;49.102;-0.370;2022-12-07T05:47:58;61.95;;;19.40;;
21527;SDS011;10925;49.102;-0.370;2022-12-07T05:50:24;53.20;;;18.65;;
21527;SDS011;10925;49.102;-0.370;2022-12-07T05:52:59;50.28;;;17.83;;
21527;SDS011;10925;49.102;-0.370;2022-12-07T05:55:26;61.15;;;18.67;;
21527;SDS011;10925;49.102;-0.370;2022-12-07T05:57:52;60.45;;;19.05;;
21527;SDS011;10925;49.102;-0.370;2022-12-07T06:00:38;67.57;;;19.20;;
21527;SDS011;10925;49.102;-0.370;2022-12-07T06:03:04;54.28;;;18.98;;
21527;SDS011;10925;49.102;-0.370;2022-12-07T06:05:31;63.83;;;20.42;;
21527;SDS011;10925;49.102;-0.370;2022-12-07T06:07:57;60.22;;;20.77;;
21527;SDS011;10925;49.102;-0.370;2022-12-07T06:10:22;66.90;;;20.20;;
21527;SDS011;10925;49.102;-0.370;2022-12-07T06:12:49;59.13;;;19.63;;
21527;SDS011;10925;49.102;-0.370;2022-12-07T06:15:16;54.17;;;19.92;;
21527;SDS011;10925;49.102;-0.370;2022-12-07T06:17:42;58.70;;;19.55;;
21527;SDS011;10925;49.102;-0.370;2022-12-07T06:20:09;54.05;;;19.13;;
21527;SDS011;10925;49.102;-0.370;2022-12-07T06:22:36;65.47;;;20.60;;
21527;SDS011;10925;49.102;-0.370;2022-12-07T06:25:02;55.13;;;20.35;;
21527;SDS011;10925;49.102;-0.370;2022-12-07T06:27:34;64.13;;;19.73;;
21527;SDS011;10925;49.102;-0.370;2022-12-07T06:30:02;63.17;;;20.73;;
21527;SDS011;10925;49.102;-0.370;2022-12-07T06:32:33;52.63;;;20.23;;
21527;SDS011;10925;49.102;-0.370;2022-12-07T06:34:59;62.75;;;19.40;;
21527;SDS011;10925;49.102;-0.370;2022-12-07T06:37:25;56.58;;;19.13;;
21527;SDS011;10925;49.102;-0.370;2022-12-07T06:39:50;54.42;;;19.35;;
21527;SDS011;10925;49.102;-0.370;2022-12-07T06:42:17;60.63;;;19.30;;
21527;SDS011;10925;49.102;-0.370;2022-12-07T06:44:44;65.57;;;22.52;;
21527;SDS011;10925;49.102;-0.370;2022-12-07T06:47:11;59.70;;;20.60;;
21527;SDS011;10925;49.102;-0.370;2022-12-07T06:52:23;60.40;;;20.30;;
21527;SDS011;10925;49.102;-0.370;2022-12-07T06:54:48;58.90;;;21.98;;
21527;SDS011;10925;49.102;-0.370;2022-12-07T06:57:14;70.18;;;23.73;;
21527;SDS011;10925;49.102;-0.370;2022-12-07T06:59:40;87.55;;;28.42;;
21527;SDS011;10925;49.102;-0.370;2022-12-07T07:02:08;78.35;;;27.83;;
21527;SDS011;10925;49.102;-0.370;2022-12-07T07:04:35;80.07;;;27.73;;
21527;SDS011;10925;49.102;-0.370;2022-12-07T07:07:01;105.13;;;35.72;;
21527;SDS011;10925;49.102;-0.370;2022-12-07T07:09:27;92.95;;;32.20;;
21527;SDS011;10925;49.102;-0.370;2022-12-07T07:11:54;95.85;;;34.70;;
21527;SDS011;10925;49.102;-0.370;2022-12-07T07:14:21;103.75;;;34.72;;
21527;SDS011;10925;49.102;-0.370;2022-12-07T07:16:47;73.32;;;26.58;;
21527;SDS011;10925;49.102;-0.370;2022-12-07T07:19:12;73.85;;;26.13;;
21527;SDS011;10925;49.102;-0.370;2022-12-07T07:21:39;69.13;;;24.75;;
21527;SDS011;10925;49.102;-0.370;2022-12-07T07:24:05;79.22;;;23.48;;
21527;SDS011;10925;49.102;-0.370;2022-12-07T07:26:32;82.32;;;26.25;;
21527;SDS011;10925;49.102;-0.370;2022-12-07T07:28:59;79.95;;;29.65;;
21527;SDS011;10925;49.102;-0.370;2022-12-07T07:31:27;87.53;;;27.83;;
21527;SDS011;10925;49.102;-0.370;2022-12-07T07:33:52;95.15;;;30.08;;
21527;SDS011;10925;49.102;-0.370;2022-12-07T07:36:19;93.40;;;29.45;;
21527;SDS011;10925;49.102;-0.370;2022-12-07T07:38:46;79.80;;;27.10;;
21527;SDS011;10925;49.102;-0.370;2022-12-07T07:41:12;90.10;;;34.22;;
21527;SDS011;10925;49.102;-0.370;2022-12-07T07:43:39;105.63;;;36.55;;
21527;SDS011;10925;49.102;-0.370;2022-12-07T07:46:06;118.18;;;39.45;;
21527;SDS011;10925;49.102;-0.370;2022-12-07T07:48:32;102.50;;;36.70;;
21527;SDS011;10925;49.102;-0.370;2022-12-07T07:50:59;102.05;;;33.42;;
21527;SDS011;10925;49.102;-0.370;2022-12-07T07:53:26;92.07;;;32.83;;
21527;SDS011;10925;49.102;-0.370;2022-12-07T07:55:52;95.45;;;33.45;;
21527;SDS011;10925;49.102;-0.370;2022-12-07T07:58:18;99.43;;;31.73;;
21527;SDS011;10925;49.102;-0.370;2022-12-07T08:00:45;102.10;;;31.10;;
21527;SDS011;10925;49.102;-0.370;2022-12-07T08:03:12;93.53;;;29.60;;
21527;SDS011;10925;49.102;-0.370;2022-12-07T08:05:38;90.43;;;30.80;;
21527;SDS011;10925;49.102;-0.370;2022-12-07T08:08:05;91.90;;;34.92;;
21527;SDS011;10925;49.102;-0.370;2022-12-07T08:10:32;101.05;;;34.78;;
21527;SDS011;10925;49.102;-0.370;2022-12-07T08:12:58;88.70;;;33.13;;
21527;SDS011;10925;49.102;-0.370;2022-12-07T08:15:38;104.95;;;36.65;;
21527;SDS011;10925;49.102;-0.370;2022-12-07T08:18:04;97.93;;;34.50;;
21527;SDS011;10925;49.102;-0.370;2022-12-07T08:20:31;92.88;;;31.42;;
21527;SDS011;10925;49.102;-0.370;2022-12-07T08:22:59;85.70;;;31.98;;
21527;SDS011;10925;49.102;-0.370;2022-12-07T08:25:26;106.72;;;39.55;;
21527;SDS011;10925;49.102;-0.370;2022-12-07T08:27:52;101.82;;;38.17;;
21527;SDS011;10925;49.102;-0.370;2022-12-07T08:30:19;96.93;;;34.58;;
21527;SDS011;10925;49.102;-0.370;2022-12-07T08:32:46;83.43;;;32.72;;
21527;SDS011;10925;49.102;-0.370;2022-12-07T08:35:11;81.25;;;29.85;;
21527;SDS011;10925;49.102;-0.370;2022-12-07T08:37:39;83.45;;;29.88;;
21527;SDS011;10925;49.102;-0.370;2022-12-07T08:40:05;83.68;;;29.42;;
21527;SDS011;10925;49.102;-0.370;2022-12-07T08:42:32;84.00;;;30.15;;
21527;SDS011;10925;49.102;-0.370;2022-12-07T08:45:08;78.35;;;30.38;;
21527;SDS011;10925;49.102;-0.370;2022-12-07T08:47:36;101.15;;;34.53;;
21527;SDS011;10925;49.102;-0.370;2022-12-07T08:50:03;79.75;;;30.75;;
21527;SDS011;10925;49.102;-0.370;2022-12-07T08:52:32;78.35;;;29.38;;
21527;SDS011;10925;49.102;-0.370;2022-12-07T08:54:58;99.00;;;36.53;;
21527;SDS011;10925;49.102;-0.370;2022-12-07T08:57:26;78.15;;;29.85;;
21527;SDS011;10925;49.102;-0.370;2022-12-07T08:59:53;72.45;;;25.02;;
21527;SDS011;10925;49.102;-0.370;2022-12-07T09:02:20;74.30;;;25.27;;
21527;SDS011;10925;49.102;-0.370;2022-12-07T09:04:47;73.13;;;30.30;;
21527;SDS011;10925;49.102;-0.370;2022-12-07T09:07:13;73.05;;;26.67;;
21527;SDS011;10925;49.102;-0.370;2022-12-07T09:09:39;68.10;;;25.52;;
21527;SDS011;10925;49.102;-0.370;2022-12-07T09:12:05;64.93;;;24.10;;
21527;SDS011;10925;49.102;-0.370;2022-12-07T09:14:32;71.70;;;24.85;;
21527;SDS011;10925;49.102;-0.370;2022-12-07T09:17:08;54.25;;;22.85;;
21527;SDS011;10925;49.102;-0.370;2022-12-07T09:19:33;58.78;;;23.55;;
21527;SDS011;10925;49.102;-0.370;2022-12-07T09:22:09;66.05;;;24.90;;
21527;SDS011;10925;49.102;-0.370;2022-12-07T09:24:37;75.53;;;27.13;;
21527;SDS011;10925;49.102;-0.370;2022-12-07T09:27:02;68.72;;;25.50;;
21527;SDS011;10925;49.102;-0.370;2022-12-07T09:29:29;73.88;;;26.15;;
21527;SDS011;10925;49.102;-0.370;2022-12-07T09:31:55;74.47;;;24.48;;
21527;SDS011;10925;49.102;-0.370;2022-12-07T09:34:22;65.90;;;23.80;;
21527;SDS011;10925;49.102;-0.370;2022-12-07T09:36:50;63.30;;;27.08;;
21527;SDS011;10925;49.102;-0.370;2022-12-07T09:39:16;63.88;;;23.45;;
21527;SDS011;10925;49.102;-0.370;2022-12-07T09:41:43;70.07;;;25.95;;
21527;SDS011;10925;49.102;-0.370;2022-12-07T09:44:14;68.00;;;27.05;;
21527;SDS011;10925;49.102;-0.370;2022-12-07T09:46:43;73.13;;;26.63;;
21527;SDS011;10925;49.102;-0.370;2022-12-07T09:49:12;82.00;;;32.33;;
21527;SDS011;10925;49.102;-0.370;2022-12-07T09:51:40;61.88;;;25.17;;
21527;SDS011;10925;49.102;-0.370;2022-12-07T09:54:07;50.55;;;22.85;;
21527;SDS011;10925;49.102;-0.370;2022-12-07T09:56:35;61.03;;;24.60;;
21527;SDS011;10925;49.102;-0.370;2022-12-07T09:59:02;59.03;;;25.23;;
21527;SDS011;10925;49.102;-0.370;2022-12-07T10:01:30;54.15;;;24.13;;
21527;SDS011;10925;49.102;-0.370;2022-12-07T10:04:00;64.47;;;27.17;;
21527;SDS011;10925;49.102;-0.370;2022-12-07T10:06:28;50.33;;;25.20;;
21527;SDS011;10925;49.102;-0.370;2022-12-07T10:08:54;62.00;;;27.48;;
21527;SDS011;10925;49.102;-0.370;2022-12-07T10:11:21;61.20;;;27.65;;
21527;SDS011;10925;49.102;-0.370;2022-12-07T10:13:49;59.50;;;27.70;;
21527;SDS011;10925;49.102;-0.370;2022-12-07T10:18:51;51.60;;;24.15;;
21527;SDS011;10925;49.102;-0.370;2022-12-07T10:21:19;48.80;;;22.92;;
21527;SDS011;10925;49.102;-0.370;2022-12-07T10:24:03;49.35;;;22.05;;
21527;SDS011;10925;49.102;-0.370;2022-12-07T10:26:41;45.63;;;22.15;;
21527;SDS011;10925;49.102;-0.370;2022-12-07T10:31:42;67.15;;;27.60;;
21527;SDS011;10925;49.102;-0.370;2022-12-07T10:34:20;70.30;;;28.70;;
21527;SDS011;10925;49.102;-0.370;2022-12-07T10:36:45;53.58;;;25.90;;
21527;SDS011;10925;49.102;-0.370;2022-12-07T10:44:29;49.17;;;23.33;;
21527;SDS011;10925;49.102;-0.370;2022-12-07T10:47:14;44.88;;;21.45;;
21527;SDS011;10925;49.102;-0.370;2022-12-07T10:53:15;51.95;;;23.15;;
21527;SDS011;10925;49.102;-0.370;2022-12-07T10:55:16;43.42;;;21.50;;
21527;SDS011;10925;49.102;-0.370;2022-12-07T10:57:53;42.05;;;20.73;;
21527;SDS011;10925;49.102;-0.370;2022-12-07T11:00:25;47.72;;;21.85;;
21527;SDS011;10925;49.102;-0.370;2022-12-07T11:05:30;51.72;;;20.48;;
21527;SDS011;10925;49.102;-0.370;2022-12-07T11:13:23;41.70;;;19.55;;
21527;SDS011;10925;49.102;-0.370;2022-12-07T11:26:20;51.65;;;18.58;;
21527;SDS011;10925;49.102;-0.370;2022-12-07T11:28:56;65.50;;;19.20;;
21527;SDS011;10925;49.102;-0.370;2022-12-07T11:31:34;50.35;;;18.80;;
21527;SDS011;10925;49.102;-0.370;2022-12-07T11:36:48;48.92;;;20.00;;
21527;SDS011;10925;49.102;-0.370;2022-12-07T11:41:48;44.60;;;20.25;;
21527;SDS011;10925;49.102;-0.370;2022-12-07T11:52:04;35.20;;;17.73;;
21527;SDS011;10925;49.102;-0.370;2022-12-07T11:54:38;41.15;;;18.63;;
21527;SDS011;10925;49.102;-0.370;2022-12-07T11:57:14;42.17;;;19.50;;
21527;SDS011;10925;49.102;-0.370;2022-12-07T11:59:47;40.50;;;18.98;;
21527;SDS011;10925;49.102;-0.370;2022-12-07T12:02:16;38.47;;;19.95;;
21527;SDS011;10925;49.102;-0.370;2022-12-07T12:07:15;38.95;;;18.25;;
21527;SDS011;10925;49.102;-0.370;2022-12-07T12:09:48;39.58;;;18.52;;
21527;SDS011;10925;49.102;-0.370;2022-12-07T12:20:22;40.92;;;18.35;;
21527;SDS011;10925;49.102;-0.370;2022-12-07T12:25:28;32.72;;;16.15;;
21527;SDS011;10925;49.102;-0.370;2022-12-07T12:27:57;27.00;;;15.02;;
21527;SDS011;10925;49.102;-0.370;2022-12-07T12:32:51;29.30;;;15.15;;
21527;SDS011;10925;49.102;-0.370;2022-12-07T12:37:53;24.17;;;13.32;;
21527;SDS011;10925;49.102;-0.370;2022-12-07T12:42:51;23.17;;;13.52;;
21527;SDS011;10925;49.102;-0.370;2022-12-07T12:45:19;23.55;;;12.80;;
21527;SDS011;10925;49.102;-0.370;2022-12-07T12:50:33;26.95;;;15.40;;
21527;SDS011;10925;49.102;-0.370;2022-12-07T12:53:02;18.13;;;11.38;;
21527;SDS011;10925;49.102;-0.370;2022-12-07T12:58:41;19.73;;;11.75;;
21527;SDS011;10925;49.102;-0.370;2022-12-07T13:03:55;15.13;;;8.80;;
21527;SDS011;10925;49.102;-0.370;2022-12-07T13:08:51;14.00;;;8.95;;
21527;SDS011;10925;49.102;-0.370;2022-12-07T13:11:30;15.75;;;9.07;;
21527;SDS011;10925;49.102;-0.370;2022-12-07T13:16:59;14.07;;;8.55;;
21527;SDS011;10925;49.102;-0.370;2022-12-07T13:20:39;13.93;;;9.52;;
21527;SDS011;10925;49.102;-0.370;2022-12-07T13:27:34;16.15;;;9.73;;
21527;SDS011;10925;49.102;-0.370;2022-12-07T13:30:06;22.27;;;11.90;;
21527;SDS011;10925;49.102;-0.370;2022-12-07T13:32:34;16.30;;;10.43;;
21527;SDS011;10925;49.102;-0.370;2022-12-07T13:35:01;20.98;;;9.90;;
21527;SDS011;10925;49.102;-0.370;2022-12-07T13:37:46;13.63;;;8.40;;
21527;SDS011;10925;49.102;-0.370;2022-12-07T13:40:17;15.57;;;9.85;;
21527;SDS011;10925;49.102;-0.370;2022-12-07T13:42:44;16.90;;;9.23;;
21527;SDS011;10925;49.102;-0.370;2022-12-07T13:45:20;16.90;;;10.45;;
21527;SDS011;10925;49.102;-0.370;2022-12-07T13:47:49;13.80;;;8.52;;
21527;SDS011;10925;49.102;-0.370;2022-12-07T13:50:25;12.00;;;7.53;;
21527;SDS011;10925;49.102;-0.370;2022-12-07T13:52:55;14.35;;;8.90;;
21527;SDS011;10925;49.102;-0.370;2022-12-07T13:55:21;22.25;;;11.73;;
21527;SDS011;10925;49.102;-0.370;2022-12-07T13:57:49;22.15;;;11.27;;
21527;SDS011;10925;49.102;-0.370;2022-12-07T14:00:21;17.23;;;9.63;;
21527;SDS011;10925;49.102;-0.370;2022-12-07T14:05:27;21.60;;;11.10;;
21527;SDS011;10925;49.102;-0.370;2022-12-07T14:07:57;33.20;;;17.00;;
21527;SDS011;10925;49.102;-0.370;2022-12-07T14:12:51;29.55;;;14.50;;
21527;SDS011;10925;49.102;-0.370;2022-12-07T14:15:22;29.60;;;15.90;;
21527;SDS011;10925;49.102;-0.370;2022-12-07T14:17:50;37.72;;;19.27;;
21527;SDS011;10925;49.102;-0.370;2022-12-07T14:23:25;34.50;;;17.42;;
21527;SDS011;10925;49.102;-0.370;2022-12-07T14:25:51;32.17;;;17.58;;
21527;SDS011;10925;49.102;-0.370;2022-12-07T14:28:32;36.10;;;17.80;;
21527;SDS011;10925;49.102;-0.370;2022-12-07T14:30:59;37.78;;;18.38;;
21527;SDS011;10925;49.102;-0.370;2022-12-07T14:33:27;35.88;;;18.63;;
21527;SDS011;10925;49.102;-0.370;2022-12-07T14:35:54;33.60;;;18.98;;
21527;SDS011;10925;49.102;-0.370;2022-12-07T14:38:22;39.00;;;20.45;;
21527;SDS011;10925;49.102;-0.370;2022-12-07T14:40:48;39.22;;;20.40;;
21527;SDS011;10925;49.102;-0.370;2022-12-07T14:43:15;40.15;;;21.25;;
21527;SDS011;10925;49.102;-0.370;2022-12-07T14:45:42;41.53;;;21.92;;
21527;SDS011;10925;49.102;-0.370;2022-12-07T14:48:10;42.13;;;22.63;;
21527;SDS011;10925;49.102;-0.370;2022-12-07T14:50:57;39.40;;;22.20;;
21527;SDS011;10925;49.102;-0.370;2022-12-07T14:53:45;40.83;;;23.20;;
21527;SDS011;10925;49.102;-0.370;2022-12-07T14:56:18;46.03;;;23.33;;
21527;SDS011;10925;49.102;-0.370;2022-12-07T14:58:45;39.35;;;23.02;;
21527;SDS011;10925;49.102;-0.370;2022-12-07T15:01:14;34.40;;;19.70;;
21527;SDS011;10925;49.102;-0.370;2022-12-07T15:03:41;34.42;;;19.17;;
21527;SDS011;10925;49.102;-0.370;2022-12-07T15:06:06;33.78;;;19.20;;
21527;SDS011;10925;49.102;-0.370;2022-12-07T15:08:33;32.45;;;17.02;;
21527;SDS011;10925;49.102;-0.370;2022-12-07T15:11:00;29.77;;;15.75;;
21527;SDS011;10925;49.102;-0.370;2022-12-07T15:13:26;33.45;;;18.77;;
21527;SDS011;10925;49.102;-0.370;2022-12-07T15:16:13;26.30;;;15.32;;
21527;SDS011;10925;49.102;-0.370;2022-12-07T15:18:40;29.05;;;16.27;;
21527;SDS011;10925;49.102;-0.370;2022-12-07T15:21:23;28.30;;;16.10;;
21527;SDS011;10925;49.102;-0.370;2022-12-07T15:23:50;30.98;;;16.25;;
21527;SDS011;10925;49.102;-0.370;2022-12-07T15:26:18;29.73;;;16.25;;
21527;SDS011;10925;49.102;-0.370;2022-12-07T15:28:44;30.48;;;17.15;;
21527;SDS011;10925;49.102;-0.370;2022-12-07T15:31:13;30.50;;;16.77;;
21527;SDS011;10925;49.102;-0.370;2022-12-07T15:34:00;32.47;;;17.98;;
21527;SDS011;10925;49.102;-0.370;2022-12-07T15:36:27;38.10;;;20.75;;
21527;SDS011;10925;49.102;-0.370;2022-12-07T15:38:55;33.65;;;19.20;;
21527;SDS011;10925;49.102;-0.370;2022-12-07T15:41:39;32.53;;;18.75;;
21527;SDS011;10925;49.102;-0.370;2022-12-07T15:44:05;35.05;;;18.58;;
21527;SDS011;10925;49.102;-0.370;2022-12-07T15:46:56;35.00;;;20.48;;
21527;SDS011;10925;49.102;-0.370;2022-12-07T15:49:22;37.67;;;20.85;;
21527;SDS011;10925;49.102;-0.370;2022-12-07T15:51:49;38.45;;;21.27;;
21527;SDS011;10925;49.102;-0.370;2022-12-07T15:54:18;42.50;;;24.67;;
21527;SDS011;10925;49.102;-0.370;2022-12-07T15:56:43;49.90;;;26.40;;
21527;SDS011;10925;49.102;-0.370;2022-12-07T15:59:10;52.63;;;28.10;;
21527;SDS011;10925;49.102;-0.370;2022-12-07T16:04:02;40.40;;;25.50;;
21527;SDS011;10925;49.102;-0.370;2022-12-07T16:06:29;42.00;;;23.50;;
21527;SDS011;10925;49.102;-0.370;2022-12-07T16:08:56;43.50;;;23.17;;
21527;SDS011;10925;49.102;-0.370;2022-12-07T16:11:22;45.20;;;23.02;;
21527;SDS011;10925;49.102;-0.370;2022-12-07T16:13:50;45.35;;;27.60;;
21527;SDS011;10925;49.102;-0.370;2022-12-07T16:16:17;52.75;;;31.80;;
21527;SDS011;10925;49.102;-0.370;2022-12-07T16:18:45;57.28;;;32.45;;
21527;SDS011;10925;49.102;-0.370;2022-12-07T16:21:12;51.60;;;30.27;;
21527;SDS011;10925;49.102;-0.370;2022-12-07T16:23:40;56.50;;;30.27;;
21527;SDS011;10925;49.102;-0.370;2022-12-07T16:26:13;53.03;;;28.23;;
21527;SDS011;10925;49.102;-0.370;2022-12-07T16:28:40;42.78;;;25.35;;